Terminal Aerodrome Forecast
Issued by NWS Wakefield, VA

Home | Current Version | Previous Version | Text Only | Print | Product List | Glossary On
Versions: 1 2 3 4 5 6 7 8 9 10 11 12 13 14 15 16 17 18 19 20
000
FTUS41 KAKQ 010700 AAA
TAFSBY
TAF AMD
KSBY 010720Z 0107/0206 35009KT P6SM BKN015 OVC050
     FM011300 36009KT 6SM BR BKN020
     FM011500 36014KT 5SM -RA BR BKN015
     FM011800 36018G27KT 5SM -RA BR BKN012
     FM020300 34017G25KT P6SM BKN030=

USA.gov is the U.S. government's official web portal to all federal, state and local government web resources and services.